createdAt,value
2018-04-11T00:00:11.517Z,69
2018-04-11T00:01:12.230Z,68
2018-04-11T00:02:12.942Z,69
2018-04-11T00:03:13.656Z,68
2018-04-11T00:04:14.379Z,69
2018-04-11T00:05:15.091Z,68
2018-04-11T00:06:15.803Z,69
2018-04-11T00:07:16.516Z,69
2018-04-11T00:08:17.227Z,68
2018-04-11T00:09:17.951Z,69
2018-04-11T00:10:18.663Z,68
2018-04-11T00:11:19.375Z,68
2018-04-11T00:12:20.097Z,69
2018-04-11T00:13:20.803Z,69
2018-04-11T00:14:21.517Z,68
2018-04-11T00:15:22.228Z,69
2018-04-11T00:16:22.939Z,69
2018-04-11T00:17:23.652Z,69
2018-04-11T00:18:24.364Z,68
2018-04-11T00:19:25.099Z,69
2018-04-11T00:20:25.802Z,69
2018-04-11T00:21:26.528Z,69
2018-04-11T00:22:27.242Z,69
2018-04-11T00:23:27.971Z,69
2018-04-11T00:24:28.681Z,69
2018-04-11T00:25:29.399Z,69
2018-04-11T00:26:30.106Z,69
2018-04-11T00:27:30.818Z,69
2018-04-11T00:28:31.529Z,68
2018-04-11T00:29:32.242Z,69
2018-04-11T00:30:32.954Z,69
2018-04-11T00:31:33.676Z,68
2018-04-11T00:32:34.388Z,69
2018-04-11T00:33:35.100Z,69
2018-04-11T00:34:35.812Z,69
2018-04-11T00:35:36.523Z,69
2018-04-11T00:36:37.235Z,69
2018-04-11T00:37:37.948Z,69
2018-04-11T00:38:38.663Z,68
2018-04-11T00:39:39.385Z,69
2018-04-11T00:40:40.096Z,68
2018-04-11T00:41:40.807Z,68
2018-04-11T00:42:41.520Z,68
2018-04-11T00:43:42.231Z,68
2018-04-11T00:44:42.956Z,68
2018-04-11T00:45:43.670Z,68
2018-04-11T00:46:44.383Z,68
2018-04-11T00:47:45.105Z,68
2018-04-11T00:48:45.818Z,68
2018-04-11T00:49:46.532Z,68
2018-04-11T00:50:47.244Z,68
2018-04-11T00:51:47.968Z,68
2018-04-11T00:52:48.681Z,68
2018-04-11T00:53:49.402Z,68
2018-04-11T00:54:50.117Z,68
2018-04-11T00:55:50.829Z,68
2018-04-11T00:56:51.542Z,68
2018-04-11T00:57:52.255Z,68
2018-04-11T00:58:52.971Z,68
2018-04-11T00:59:53.691Z,68
2018-04-11T01:00:54.414Z,68
2018-04-11T01:01:55.127Z,68
2018-04-11T01:02:55.839Z,68
2018-04-11T01:03:56.550Z,68
2018-04-11T01:04:57.262Z,68
2018-04-11T01:05:57.972Z,68
2018-04-11T01:06:58.686Z,68
2018-04-11T01:07:59.396Z,68
2018-04-11T01:09:00.108Z,68
2018-04-11T01:10:00.832Z,68
2018-04-11T01:11:01.548Z,68
2018-04-11T01:12:02.267Z,68
2018-04-11T01:13:02.980Z,68
2018-04-11T01:14:03.691Z,68
2018-04-11T01:15:04.406Z,68
2018-04-11T01:16:05.117Z,68
2018-04-11T01:17:05.841Z,68
2018-04-11T01:18:06.551Z,68
2018-04-11T01:19:07.262Z,68
2018-04-11T01:20:07.975Z,68
2018-04-11T01:21:08.689Z,68
2018-04-11T01:22:09.402Z,68
2018-04-11T01:23:10.115Z,68
2018-04-11T01:24:10.836Z,68
2018-04-11T01:25:11.561Z,68
2018-04-11T01:26:12.276Z,68
2018-04-11T01:27:12.997Z,68
2018-04-11T01:28:13.708Z,68
2018-04-11T01:29:14.420Z,68
2018-04-11T01:30:15.137Z,68
2018-04-11T01:31:15.859Z,68
2018-04-11T01:32:16.568Z,68
2018-04-11T01:33:17.279Z,68
2018-04-11T01:34:17.991Z,68
2018-04-11T01:35:18.703Z,68
2018-04-11T01:36:19.422Z,68
2018-04-11T01:37:20.135Z,68
2018-04-11T01:38:20.847Z,68
2018-04-11T01:39:21.557Z,68
2018-04-11T01:40:22.267Z,68
2018-04-11T01:41:22.990Z,68
2018-04-11T01:42:23.702Z,67
2018-04-11T01:43:24.413Z,68
2018-04-11T01:44:25.148Z,67
2018-04-11T01:45:25.843Z,67
2018-04-11T01:46:26.562Z,67
2018-04-11T01:47:27.274Z,67
2018-04-11T01:48:27.990Z,68
2018-04-11T01:49:28.700Z,68
2018-04-11T01:50:29.430Z,68
2018-04-11T01:51:30.142Z,67
2018-04-11T01:52:30.855Z,67
2018-04-11T01:53:31.569Z,67
2018-04-11T01:54:32.282Z,67
2018-04-11T01:55:32.996Z,67
2018-04-11T01:56:33.966Z,68
2018-04-11T01:57:34.677Z,68
2018-04-11T01:58:35.390Z,68
2018-04-11T01:59:36.109Z,68
2018-04-11T02:00:36.828Z,68
2018-04-11T02:01:37.542Z,68
2018-04-11T02:02:38.254Z,68
2018-04-11T02:03:38.980Z,67
2018-04-11T02:04:39.696Z,68
2018-04-11T02:05:40.417Z,67
2018-04-11T02:06:41.129Z,67
2018-04-11T02:07:41.842Z,68
2018-04-11T02:08:42.556Z,67
2018-04-11T02:09:43.328Z,67
2018-04-11T02:10:43.993Z,68
2018-04-11T02:11:44.705Z,68
2018-04-11T02:12:45.418Z,67
2018-04-11T02:13:46.143Z,68
2018-04-11T02:14:46.853Z,68
2018-04-11T02:15:47.577Z,68
2018-04-11T02:16:48.290Z,67
2018-04-11T02:17:49.016Z,67
2018-04-11T02:18:49.729Z,68
2018-04-11T02:19:50.443Z,67
2018-04-11T02:20:51.158Z,68
2018-04-11T02:21:51.873Z,68
2018-04-11T02:22:52.599Z,68
2018-04-11T02:23:53.312Z,68
2018-04-11T02:24:54.022Z,67
2018-04-11T02:25:54.735Z,68
2018-04-11T02:26:55.448Z,67
2018-04-11T02:27:56.172Z,67
2018-04-11T02:28:56.886Z,68
2018-04-11T02:29:57.599Z,68
2018-04-11T02:30:58.313Z,68
2018-04-11T02:31:59.040Z,68
2018-04-11T02:32:59.742Z,68
2018-04-11T02:34:00.466Z,68
2018-04-11T02:35:01.179Z,67
2018-04-11T02:36:01.894Z,68
2018-04-11T02:37:02.616Z,68
2018-04-11T02:38:03.320Z,67
2018-04-11T02:39:04.033Z,67
2018-04-11T02:40:04.758Z,68
2018-04-11T02:41:05.469Z,68
2018-04-11T02:42:06.186Z,68
2018-04-11T02:43:06.892Z,68
2018-04-11T02:44:07.603Z,68
2018-04-11T02:45:08.323Z,68
2018-04-11T02:46:09.045Z,68
2018-04-11T02:47:09.753Z,68
2018-04-11T02:48:10.465Z,68
2018-04-11T02:49:11.188Z,67
2018-04-11T02:50:11.913Z,67
2018-04-11T02:51:12.626Z,67
2018-04-11T02:52:13.340Z,67
2018-04-11T02:53:14.053Z,68
2018-04-11T02:54:14.776Z,68
2018-04-11T02:55:15.499Z,68
2018-04-11T02:56:16.210Z,68
2018-04-11T02:57:16.937Z,68
2018-04-11T02:58:17.649Z,68
2018-04-11T02:59:18.361Z,68
2018-04-11T03:00:19.074Z,68
2018-04-11T03:01:19.786Z,67
2018-04-11T03:02:20.497Z,68
2018-04-11T03:03:21.224Z,68
2018-04-11T03:04:21.936Z,68
2018-04-11T03:05:22.661Z,68
2018-04-11T03:06:23.374Z,68
2018-04-11T03:07:24.087Z,68
2018-04-11T03:08:24.812Z,68
2018-04-11T03:09:25.553Z,68
2018-04-11T03:10:26.245Z,68
2018-04-11T03:11:26.958Z,68
2018-04-11T03:12:27.671Z,68
2018-04-11T03:13:28.384Z,68
2018-04-11T03:14:29.098Z,68
2018-04-11T03:15:29.812Z,68
2018-04-11T03:16:30.535Z,68
2018-04-11T03:17:31.248Z,68
2018-04-11T03:18:31.970Z,68
2018-04-11T03:19:32.682Z,68
2018-04-11T03:20:33.394Z,68
2018-04-11T03:21:34.107Z,68
2018-04-11T03:22:34.820Z,68
2018-04-11T03:23:35.542Z,68
2018-04-11T03:24:36.254Z,68
2018-04-11T03:25:36.981Z,68
2018-04-11T03:26:37.706Z,69
2018-04-11T03:27:38.414Z,68
2018-04-11T03:28:39.127Z,69
2018-04-11T03:29:39.838Z,69
2018-04-11T03:30:40.552Z,69
2018-04-11T03:31:41.263Z,69
2018-04-11T03:32:41.976Z,69
2018-04-11T03:33:42.688Z,69
2018-04-11T03:34:43.404Z,69
2018-04-11T03:35:44.125Z,68
2018-04-11T03:36:44.850Z,69
2018-04-11T03:37:45.563Z,69
2018-04-11T03:38:46.276Z,69
2018-04-11T03:39:46.988Z,69
2018-04-11T03:40:47.710Z,69
2018-04-11T03:41:48.421Z,69
2018-04-11T03:42:49.145Z,69
2018-04-11T03:43:49.858Z,69
2018-04-11T03:44:50.584Z,69
2018-04-11T03:45:51.298Z,69
2018-04-11T03:46:52.011Z,69
2018-04-11T03:47:52.736Z,69
2018-04-11T03:48:53.447Z,69
2018-04-11T03:49:54.159Z,69
2018-04-11T03:50:54.869Z,69
2018-04-11T03:51:55.580Z,69
2018-04-11T03:52:56.294Z,69
2018-04-11T03:53:57.003Z,69
2018-04-11T03:54:57.726Z,69
2018-04-11T03:55:58.448Z,69
2018-04-11T03:56:59.161Z,69
2018-04-11T03:57:59.872Z,69
2018-04-11T03:59:00.602Z,69
2018-04-11T04:00:01.313Z,69
2018-04-11T04:01:02.026Z,69
2018-04-11T04:02:02.751Z,69
2018-04-11T04:03:03.461Z,69
2018-04-11T04:04:04.185Z,69
2018-04-11T04:05:04.897Z,69
2018-04-11T04:06:05.608Z,69
2018-04-11T04:07:06.323Z,69
2018-04-11T04:08:07.032Z,69
2018-04-11T04:09:07.745Z,69
2018-04-11T04:10:08.460Z,69
2018-04-11T04:11:09.167Z,69
2018-04-11T04:12:09.880Z,69
2018-04-11T04:13:10.593Z,69
2018-04-11T04:14:11.320Z,69
2018-04-11T04:15:12.034Z,70
2018-04-11T04:16:12.748Z,70
2018-04-11T04:17:13.461Z,69
2018-04-11T04:18:14.172Z,70
2018-04-11T04:19:14.885Z,69
2018-04-11T04:20:15.597Z,70
2018-04-11T04:21:16.310Z,70
2018-04-11T04:22:17.023Z,70
2018-04-11T04:23:17.739Z,70
2018-04-11T04:24:18.461Z,70
2018-04-11T04:25:19.175Z,70
2018-04-11T04:26:19.885Z,70
2018-04-11T04:27:20.611Z,70
2018-04-11T04:28:21.323Z,70
2018-04-11T04:29:22.034Z,70
2018-04-11T04:30:22.757Z,70
2018-04-11T04:31:23.457Z,70
2018-04-11T04:32:24.168Z,70
2018-04-11T04:33:24.894Z,70
2018-04-11T04:34:25.607Z,70
2018-04-11T04:35:26.331Z,70
2018-04-11T04:36:27.057Z,70
2018-04-11T04:37:27.782Z,70
2018-04-11T04:38:28.501Z,70
2018-04-11T04:39:29.227Z,70
2018-04-11T04:40:29.949Z,70
2018-04-11T04:41:30.663Z,70
2018-04-11T04:42:31.376Z,70
2018-04-11T04:43:32.155Z,70
2018-04-11T04:44:32.816Z,70
2018-04-11T04:45:33.534Z,70
2018-04-11T04:46:34.242Z,70
2018-04-11T04:47:34.956Z,70
2018-04-11T04:48:35.672Z,70
2018-04-11T04:49:36.389Z,70
2018-04-11T04:50:37.106Z,70
2018-04-11T04:51:37.822Z,70
2018-04-11T04:52:38.537Z,70
2018-04-11T04:53:39.255Z,70
2018-04-11T04:54:39.971Z,70
2018-04-11T04:55:40.688Z,70
2018-04-11T04:56:41.404Z,70
2018-04-11T04:57:42.130Z,70
2018-04-11T04:58:42.845Z,70
2018-04-11T04:59:43.560Z,70
2018-04-11T05:00:44.274Z,71
2018-04-11T05:01:44.992Z,70
2018-04-11T05:02:45.710Z,70
2018-04-11T05:03:46.425Z,71
2018-04-11T05:04:47.139Z,70
2018-04-11T05:05:47.871Z,70
2018-04-11T05:06:48.584Z,71
2018-04-11T05:07:49.299Z,70
2018-04-11T05:08:50.016Z,70
2018-04-11T05:09:50.732Z,70
2018-04-11T05:10:51.448Z,70
2018-04-11T05:11:52.163Z,70
2018-04-11T05:12:52.878Z,70
2018-04-11T05:13:53.595Z,71
2018-04-11T05:14:54.310Z,70
2018-04-11T05:15:55.039Z,70
2018-04-11T05:16:55.768Z,71
2018-04-11T05:17:56.496Z,70
2018-04-11T05:18:57.212Z,70
2018-04-11T05:19:57.933Z,71
2018-04-11T05:20:58.645Z,70
2018-04-11T05:21:59.361Z,70
2018-04-11T05:23:00.076Z,70
2018-04-11T05:24:00.792Z,70
2018-04-11T05:25:01.510Z,71
2018-04-11T05:26:02.240Z,71
2018-04-11T05:27:02.970Z,70
2018-04-11T05:28:03.699Z,70
2018-04-11T05:29:04.429Z,70
2018-04-11T05:30:05.147Z,70
2018-04-11T05:31:05.862Z,70
2018-04-11T05:32:06.579Z,70
2018-04-11T05:33:07.297Z,70
2018-04-11T05:34:08.013Z,70
2018-04-11T05:35:08.733Z,71
2018-04-11T05:36:09.462Z,70
2018-04-11T05:37:10.182Z,71
2018-04-11T05:38:10.899Z,70
2018-04-11T05:39:11.614Z,70
2018-04-11T05:40:12.343Z,70
2018-04-11T05:41:13.072Z,70
2018-04-11T05:42:13.803Z,70
2018-04-11T05:43:14.531Z,70
2018-04-11T05:44:15.249Z,70
2018-04-11T05:45:15.965Z,70
2018-04-11T05:46:16.683Z,70
2018-04-11T05:47:17.407Z,70
2018-04-11T05:48:18.124Z,70
2018-04-11T05:49:18.837Z,70
2018-04-11T05:50:19.554Z,70
2018-04-11T05:51:20.285Z,70
2018-04-11T05:52:21.002Z,70
2018-04-11T05:53:21.771Z,70
2018-04-11T05:54:22.437Z,70
2018-04-11T05:55:23.154Z,70
2018-04-11T05:56:23.874Z,70
2018-04-11T05:57:24.588Z,70
2018-04-11T05:58:25.304Z,70
2018-04-11T05:59:26.021Z,70
2018-04-11T06:00:26.739Z,70
2018-04-11T06:01:27.459Z,70
2018-04-11T06:02:28.176Z,70
2018-04-11T06:03:28.906Z,70
2018-04-11T06:04:29.623Z,70
2018-04-11T06:05:30.343Z,70
2018-04-11T06:06:31.064Z,70
2018-04-11T06:07:31.783Z,70
2018-04-11T06:08:32.500Z,70
2018-04-11T06:09:33.221Z,70
2018-04-11T06:10:33.940Z,70
2018-04-11T06:11:34.661Z,70
2018-04-11T06:12:35.380Z,70
2018-04-11T06:13:36.097Z,70
2018-04-11T06:14:36.815Z,70
2018-04-11T06:15:37.546Z,70
2018-04-11T06:16:38.267Z,70
2018-04-11T06:17:38.988Z,70
2018-04-11T06:18:39.706Z,70
2018-04-11T06:19:40.426Z,70
2018-04-11T06:20:41.162Z,69
2018-04-11T06:21:41.880Z,69
2018-04-11T06:22:42.603Z,70
2018-04-11T06:23:43.322Z,70
2018-04-11T06:24:44.038Z,69
2018-04-11T06:25:44.757Z,69
2018-04-11T06:26:45.478Z,69
2018-04-11T06:27:46.197Z,69
2018-04-11T06:28:46.916Z,69
2018-04-11T06:29:47.634Z,69
2018-04-11T06:30:48.368Z,69
2018-04-11T06:31:49.099Z,69
2018-04-11T06:32:49.811Z,69
2018-04-11T06:33:50.531Z,69
2018-04-11T06:34:51.264Z,69
2018-04-11T06:35:51.985Z,69
2018-04-11T06:36:52.709Z,68
2018-04-11T06:37:53.429Z,69
2018-04-11T06:38:54.188Z,69
2018-04-11T06:39:54.873Z,69
2018-04-11T06:40:55.595Z,69
2018-04-11T06:41:56.317Z,69
2018-04-11T06:42:57.041Z,68
2018-04-11T06:43:57.763Z,69
2018-04-11T06:44:58.487Z,69
2018-04-11T06:45:59.225Z,69
2018-04-11T06:46:59.946Z,68
2018-04-11T06:48:00.672Z,68
2018-04-11T06:49:01.405Z,68
2018-04-11T06:50:02.131Z,68
2018-04-11T06:51:02.852Z,69
2018-04-11T06:52:03.572Z,69
2018-04-11T06:53:04.295Z,69
2018-04-11T06:54:05.017Z,69
2018-04-11T06:55:05.755Z,69
2018-04-11T06:56:06.491Z,70
2018-04-11T06:57:07.227Z,69
2018-04-11T06:58:07.959Z,69
2018-04-11T06:59:08.686Z,69
2018-04-11T07:00:09.427Z,69
2018-04-11T07:01:10.161Z,69
2018-04-11T07:02:10.899Z,69
2018-04-11T07:03:11.633Z,69
2018-04-11T07:04:12.357Z,69
2018-04-11T07:05:13.081Z,69
2018-04-11T07:06:13.804Z,69
2018-04-11T07:07:14.529Z,70
2018-04-11T07:08:15.252Z,69
2018-04-11T07:09:15.976Z,69
2018-04-11T07:10:16.700Z,69
2018-04-11T07:11:17.437Z,69
2018-04-11T07:12:18.161Z,69
2018-04-11T07:13:18.887Z,69
2018-04-11T07:14:19.611Z,69
2018-04-11T07:15:20.336Z,70
2018-04-11T07:16:21.062Z,69
2018-04-11T07:17:21.791Z,69
2018-04-11T07:18:22.519Z,69
2018-04-11T07:19:23.244Z,68
2018-04-11T07:20:23.984Z,68
2018-04-11T07:21:24.727Z,69
2018-04-11T07:22:25.450Z,69
2018-04-11T07:23:26.176Z,69
2018-04-11T07:24:26.905Z,69
2018-04-11T07:25:27.635Z,69
2018-04-11T07:26:28.358Z,69
2018-04-11T07:27:29.089Z,69
2018-04-11T07:28:29.822Z,68
2018-04-11T07:29:30.550Z,69
2018-04-11T07:30:31.277Z,69
2018-04-11T07:31:32.008Z,69
2018-04-11T07:32:32.738Z,68
2018-04-11T07:33:33.469Z,68
2018-04-11T07:34:34.201Z,68
2018-04-11T07:35:34.932Z,68
2018-04-11T07:36:35.663Z,68
2018-04-11T07:37:36.395Z,68
2018-04-11T07:38:37.129Z,68
2018-04-11T07:39:37.870Z,68
2018-04-11T07:40:38.601Z,68
2018-04-11T07:41:39.333Z,68
2018-04-11T07:42:40.066Z,68
2018-04-11T07:43:40.802Z,68
2018-04-11T07:44:41.548Z,68
2018-04-11T07:45:42.278Z,68
2018-04-11T07:46:43.010Z,68
2018-04-11T07:47:43.743Z,67
2018-04-11T07:48:44.475Z,67
2018-04-11T07:49:45.209Z,67
2018-04-11T07:50:45.943Z,67
2018-04-11T07:51:46.678Z,67
2018-04-11T07:52:47.411Z,66
2018-04-11T07:53:48.146Z,66
2018-04-11T07:54:48.881Z,66
2018-04-11T07:55:49.615Z,65
2018-04-11T07:56:50.347Z,65
2018-04-11T07:57:51.078Z,64
2018-04-11T07:58:51.811Z,64
2018-04-11T07:59:52.558Z,63
2018-04-11T08:00:53.276Z,63
2018-04-11T08:01:54.007Z,63
2018-04-11T08:02:54.752Z,63
2018-04-11T08:03:55.484Z,64
2018-04-11T08:04:56.216Z,64
2018-04-11T08:05:56.950Z,63
2018-04-11T08:06:57.682Z,62
2018-04-11T08:07:58.417Z,61
2018-04-11T08:08:59.162Z,61
2018-04-11T08:09:59.908Z,60
2018-04-11T08:11:00.637Z,60
2018-04-11T08:12:01.381Z,59
2018-04-11T08:13:02.120Z,59
2018-04-11T08:14:02.860Z,59
2018-04-11T08:15:03.593Z,58
2018-04-11T08:16:04.326Z,58
2018-04-11T08:17:05.061Z,59
2018-04-11T08:18:05.830Z,59
2018-04-11T08:19:06.539Z,58
2018-04-11T08:20:07.273Z,58
2018-04-11T08:21:08.008Z,59
2018-04-11T08:22:08.740Z,58
2018-04-11T08:23:09.475Z,58
2018-04-11T08:24:10.207Z,56
2018-04-11T08:25:10.941Z,55
2018-04-11T08:26:11.676Z,54
2018-04-11T08:27:12.410Z,54
2018-04-11T08:28:13.145Z,52
2018-04-11T08:29:13.880Z,52
2018-04-11T08:30:14.615Z,52
2018-04-11T08:31:15.350Z,52
2018-04-11T08:32:16.084Z,52
2018-04-11T08:33:16.819Z,53
2018-04-11T08:34:17.555Z,56
2018-04-11T08:35:18.291Z,56
2018-04-11T08:36:19.024Z,56
2018-04-11T08:37:19.757Z,54
2018-04-11T08:38:20.503Z,53
2018-04-11T08:39:21.241Z,53
2018-04-11T08:40:21.976Z,53
2018-04-11T08:41:22.711Z,51
2018-04-11T08:42:23.445Z,52
2018-04-11T08:43:24.194Z,49
2018-04-11T08:44:24.929Z,49
2018-04-11T08:45:25.666Z,48
2018-04-11T08:46:26.400Z,48
2018-04-11T08:47:27.136Z,47
2018-04-11T08:48:27.873Z,47
2018-04-11T08:49:28.607Z,46
2018-04-11T08:50:29.343Z,45
2018-04-11T08:51:30.094Z,45
2018-04-11T08:52:30.883Z,45
2018-04-11T08:53:31.565Z,45
2018-04-11T08:54:32.300Z,46
2018-04-11T08:55:33.047Z,45
2018-04-11T08:56:33.784Z,45
2018-04-11T08:57:34.519Z,45
2018-04-11T08:58:35.253Z,45
2018-04-11T08:59:35.993Z,44
2018-04-11T09:00:36.728Z,45
2018-04-11T09:01:37.468Z,45
2018-04-11T09:02:38.201Z,46
2018-04-11T09:03:38.951Z,47
2018-04-11T09:04:39.704Z,47
2018-04-11T09:05:40.441Z,46
2018-04-11T09:06:41.177Z,47
2018-04-11T09:07:41.915Z,47
2018-04-11T09:08:42.650Z,48
2018-04-11T09:09:43.385Z,49
2018-04-11T09:10:44.122Z,51
2018-04-11T09:11:44.856Z,50
2018-04-11T09:12:45.593Z,51
2018-04-11T09:13:46.329Z,51
2018-04-11T09:14:47.078Z,53
2018-04-11T09:15:47.810Z,52
2018-04-11T09:16:48.545Z,53
2018-04-11T09:17:49.278Z,53
2018-04-11T09:18:50.014Z,54
2018-04-11T09:19:50.762Z,52
2018-04-11T09:20:51.512Z,51
2018-04-11T09:21:52.248Z,50
2018-04-11T09:22:52.983Z,48
2018-04-11T09:23:53.732Z,47
2018-04-11T09:24:54.469Z,46
2018-04-11T09:25:55.204Z,46
2018-04-11T09:26:55.939Z,45
2018-04-11T09:27:56.676Z,45
2018-04-11T09:28:57.412Z,45
2018-04-11T09:29:58.160Z,44
2018-04-11T09:30:58.893Z,45
2018-04-11T09:31:59.647Z,45
2018-04-11T09:33:00.390Z,46
2018-04-11T09:34:01.096Z,48
2018-04-11T09:35:01.830Z,50
2018-04-11T09:36:02.580Z,52
2018-04-11T09:37:03.311Z,52
2018-04-11T09:38:04.048Z,51
2018-04-11T09:39:04.782Z,50
2018-04-11T09:40:05.530Z,49
2018-04-11T09:41:06.267Z,48
2018-04-11T09:42:07.015Z,47
2018-04-11T09:43:07.751Z,47
2018-04-11T09:44:08.486Z,46
2018-04-11T09:45:09.223Z,45
2018-04-11T09:46:09.972Z,45
2018-04-11T09:47:10.722Z,44
2018-04-11T09:48:11.469Z,44
2018-04-11T09:49:12.223Z,44
2018-04-11T09:50:12.974Z,43
2018-04-11T09:51:13.709Z,44
2018-04-11T09:52:14.450Z,44
2018-04-11T09:53:15.193Z,44
2018-04-11T09:54:15.939Z,43
2018-04-11T09:55:16.683Z,43
2018-04-11T09:56:17.434Z,44
2018-04-11T09:57:18.178Z,43
2018-04-11T09:58:18.930Z,43
2018-04-11T09:59:19.689Z,43
2018-04-11T10:00:20.441Z,42
2018-04-11T10:01:21.178Z,42
2018-04-11T10:02:21.925Z,42
2018-04-11T10:03:22.675Z,41
2018-04-11T10:04:23.427Z,41
2018-04-11T10:05:24.173Z,41
2018-04-11T10:06:24.935Z,42
2018-04-11T10:07:25.692Z,41
2018-04-11T10:08:26.438Z,41
2018-04-11T10:09:27.180Z,41
2018-04-11T10:10:27.940Z,40
2018-04-11T10:11:28.701Z,41
2018-04-11T10:12:29.450Z,40
2018-04-11T10:13:30.196Z,40
2018-04-11T10:14:30.944Z,39
2018-04-11T10:15:31.688Z,38
2018-04-11T10:16:32.448Z,38
2018-04-11T10:17:33.190Z,39
2018-04-11T10:18:33.939Z,40
2018-04-11T10:19:34.684Z,41
2018-04-11T10:20:35.428Z,42
2018-04-11T10:21:36.177Z,41
2018-04-11T10:22:36.930Z,40
2018-04-11T10:23:37.673Z,39
2018-04-11T10:24:38.420Z,39
2018-04-11T10:25:39.165Z,41
2018-04-11T10:26:39.909Z,42
2018-04-11T10:27:40.652Z,40
2018-04-11T10:28:41.396Z,40
2018-04-11T10:29:42.138Z,40
2018-04-11T10:30:42.884Z,40
2018-04-11T10:31:43.632Z,40
2018-04-11T10:32:44.384Z,42
2018-04-11T10:33:45.141Z,43
2018-04-11T10:34:45.884Z,42
2018-04-11T10:35:46.628Z,42
2018-04-11T10:36:47.372Z,42
2018-04-11T10:37:48.116Z,42
2018-04-11T10:38:48.859Z,43
2018-04-11T10:39:49.667Z,43
2018-04-11T10:40:50.351Z,42
2018-04-11T10:41:51.096Z,42
2018-04-11T10:42:51.842Z,41
2018-04-11T10:43:52.585Z,42
2018-04-11T10:44:53.327Z,42
2018-04-11T10:45:54.072Z,42
2018-04-11T10:46:54.818Z,45
2018-04-11T10:47:55.561Z,47
2018-04-11T10:48:56.303Z,47
2018-04-11T10:49:57.042Z,46
2018-04-11T10:50:57.777Z,47
2018-04-11T10:51:58.512Z,48
2018-04-11T10:52:59.246Z,49
2018-04-11T10:53:59.994Z,49
2018-04-11T10:55:00.729Z,49
2018-04-11T10:56:01.462Z,50
2018-04-11T10:57:02.195Z,51
2018-04-11T10:58:02.926Z,51
2018-04-11T10:59:03.674Z,51
2018-04-11T11:00:04.405Z,51
2018-04-11T11:01:05.151Z,52
2018-04-11T11:02:05.883Z,51
2018-04-11T11:03:06.618Z,51
2018-04-11T11:04:07.366Z,49
2018-04-11T11:05:08.098Z,49
2018-04-11T11:06:08.833Z,50
2018-04-11T11:07:09.573Z,50
2018-04-11T11:08:10.314Z,50
2018-04-11T11:09:11.060Z,51
2018-04-11T11:10:11.792Z,52
2018-04-11T11:11:12.525Z,51
2018-04-11T11:12:13.255Z,52
2018-04-11T11:13:14.002Z,53
2018-04-11T11:14:14.733Z,53
2018-04-11T11:15:15.465Z,52
2018-04-11T11:16:16.194Z,53
2018-04-11T11:17:16.925Z,53
2018-04-11T11:18:17.659Z,52
2018-04-11T11:19:18.389Z,52
2018-04-11T11:20:19.121Z,52
2018-04-11T11:21:19.864Z,52
2018-04-11T11:22:20.596Z,52
2018-04-11T11:23:21.339Z,51
2018-04-11T11:24:22.070Z,51
2018-04-11T11:25:22.803Z,50
2018-04-11T11:26:23.551Z,49
2018-04-11T11:27:24.293Z,48
2018-04-11T11:28:25.045Z,47
2018-04-11T11:29:25.778Z,45
2018-04-11T11:30:26.507Z,45
2018-04-11T11:31:27.243Z,45
2018-04-11T11:32:27.972Z,45
2018-04-11T11:33:28.706Z,45
2018-04-11T11:34:29.441Z,45
2018-04-11T11:35:30.172Z,45
2018-04-11T11:36:30.907Z,47
2018-04-11T11:37:31.652Z,47
2018-04-11T11:38:32.384Z,47
2018-04-11T11:39:33.132Z,48
2018-04-11T11:40:33.861Z,49
2018-04-11T11:41:34.593Z,50
2018-04-11T11:42:35.334Z,51
2018-04-11T11:43:36.081Z,51
2018-04-11T11:44:36.811Z,52
2018-04-11T11:45:37.543Z,52
2018-04-11T11:46:38.272Z,51
2018-04-11T11:47:39.002Z,52
2018-04-11T11:48:39.743Z,52
2018-04-11T11:49:40.471Z,52
2018-04-11T11:50:41.202Z,53
2018-04-11T11:51:41.930Z,54
2018-04-11T11:52:42.660Z,55
2018-04-11T11:53:43.389Z,55
2018-04-11T11:54:44.118Z,55
2018-04-11T11:55:44.841Z,55
2018-04-11T11:56:45.570Z,56
2018-04-11T11:57:46.298Z,56
2018-04-11T11:58:47.044Z,56
2018-04-11T11:59:47.781Z,57
2018-04-11T12:00:48.509Z,57
2018-04-11T12:01:49.236Z,57
2018-04-11T12:02:49.978Z,58
2018-04-11T12:03:50.720Z,58
2018-04-11T12:04:51.462Z,58
2018-04-11T12:05:52.187Z,59
2018-04-11T12:06:52.917Z,59
2018-04-11T12:07:53.645Z,59
2018-04-11T12:08:54.375Z,59
2018-04-11T12:09:55.103Z,59
2018-04-11T12:10:55.829Z,58
2018-04-11T12:11:56.599Z,57
2018-04-11T12:12:57.289Z,56
2018-04-11T12:13:58.017Z,56
2018-04-11T12:14:58.745Z,57
2018-04-11T12:15:59.476Z,56
2018-04-11T12:17:00.221Z,57
2018-04-11T12:18:00.943Z,57
2018-04-11T12:19:01.689Z,58
2018-04-11T12:20:02.427Z,58
2018-04-11T12:21:03.155Z,58
2018-04-11T12:22:03.884Z,58
2018-04-11T12:23:04.614Z,58
2018-04-11T12:24:05.356Z,58
2018-04-11T12:25:06.095Z,59
2018-04-11T12:26:06.867Z,59
2018-04-11T12:27:07.542Z,60
2018-04-11T12:28:08.274Z,60
2018-04-11T12:29:09.002Z,61
2018-04-11T12:30:09.735Z,61
2018-04-11T12:31:10.473Z,62
2018-04-11T12:32:11.212Z,62
2018-04-11T12:33:11.954Z,63
2018-04-11T12:34:12.680Z,63
2018-04-11T12:35:13.408Z,63
2018-04-11T12:36:14.136Z,64
2018-04-11T12:37:14.861Z,64
2018-04-11T12:38:15.587Z,64
2018-04-11T12:39:16.319Z,63
2018-04-11T12:40:17.044Z,64
2018-04-11T12:41:17.771Z,63
2018-04-11T12:42:18.515Z,63
2018-04-11T12:43:19.243Z,63
2018-04-11T12:44:19.970Z,63
2018-04-11T12:45:20.697Z,63
2018-04-11T12:46:21.428Z,63
2018-04-11T12:47:22.153Z,63
2018-04-11T12:48:22.883Z,63
2018-04-11T12:49:23.612Z,62
2018-04-11T12:50:24.344Z,61
2018-04-11T12:51:25.074Z,60
2018-04-11T12:52:25.808Z,60
2018-04-11T12:53:26.534Z,59
2018-04-11T12:54:27.263Z,60
2018-04-11T12:55:28.007Z,60
2018-04-11T12:56:28.739Z,60
2018-04-11T12:57:29.470Z,59
2018-04-11T12:58:30.228Z,58
2018-04-11T12:59:30.987Z,58
2018-04-11T13:00:31.670Z,56
2018-04-11T13:01:32.402Z,55
2018-04-11T13:02:33.129Z,55
2018-04-11T13:03:33.858Z,55
2018-04-11T13:04:34.593Z,55
2018-04-11T13:05:35.318Z,54
2018-04-11T13:06:36.049Z,54
2018-04-11T13:07:36.775Z,55
2018-04-11T13:08:37.516Z,56
2018-04-11T13:09:38.261Z,56
2018-04-11T13:10:38.985Z,57
2018-04-11T13:11:39.716Z,58
2018-04-11T13:12:40.442Z,58
2018-04-11T13:13:41.170Z,58
2018-04-11T13:14:41.897Z,58
2018-04-11T13:15:42.627Z,58
2018-04-11T13:16:43.355Z,58
2018-04-11T13:17:44.085Z,58
2018-04-11T13:18:44.812Z,60
2018-04-11T13:19:45.551Z,59
2018-04-11T13:20:46.282Z,59
2018-04-11T13:21:47.010Z,60
2018-04-11T13:22:47.751Z,60
2018-04-11T13:23:48.479Z,60
2018-04-11T13:24:49.214Z,59
2018-04-11T13:25:49.943Z,56
2018-04-11T13:26:50.673Z,56
2018-04-11T13:27:51.404Z,54
2018-04-11T13:28:52.132Z,54
2018-04-11T13:29:52.863Z,53
2018-04-11T13:30:53.593Z,52
2018-04-11T13:31:54.335Z,51
2018-04-11T13:32:55.065Z,52
2018-04-11T13:33:55.798Z,53
2018-04-11T13:34:56.537Z,54
2018-04-11T13:35:57.267Z,55
2018-04-11T13:36:57.995Z,55
2018-04-11T13:37:58.726Z,55
2018-04-11T13:38:59.454Z,55
2018-04-11T13:40:00.194Z,56
2018-04-11T13:41:00.974Z,56
2018-04-11T13:42:01.652Z,55
2018-04-11T13:43:02.381Z,55
2018-04-11T13:44:03.108Z,55
2018-04-11T13:45:03.854Z,55
2018-04-11T13:46:04.579Z,56
2018-04-11T13:47:05.361Z,56
2018-04-11T13:48:06.037Z,57
2018-04-11T13:49:06.776Z,58
2018-04-11T13:50:07.517Z,58
2018-04-11T13:51:08.254Z,58
2018-04-11T13:52:08.994Z,58
2018-04-11T13:53:09.734Z,58
2018-04-11T13:54:10.463Z,58
2018-04-11T13:55:11.192Z,58
2018-04-11T13:56:11.921Z,59
2018-04-11T13:57:12.662Z,60
2018-04-11T13:58:13.392Z,60
2018-04-11T13:59:14.123Z,60
2018-04-11T14:00:14.854Z,61
2018-04-11T14:01:15.585Z,61
2018-04-11T14:02:16.316Z,60
2018-04-11T14:03:17.067Z,60
2018-04-11T14:04:17.797Z,60
2018-04-11T14:05:18.532Z,60
2018-04-11T14:06:19.264Z,60
2018-04-11T14:07:20.010Z,60
2018-04-11T14:08:20.805Z,59
2018-04-11T14:09:21.478Z,60
2018-04-11T14:10:22.209Z,60
2018-04-11T14:11:22.950Z,61
2018-04-11T14:12:23.691Z,61
2018-04-11T14:13:24.420Z,61
2018-04-11T14:14:25.164Z,62
2018-04-11T14:15:25.892Z,62
2018-04-11T14:16:26.619Z,63
2018-04-11T14:17:27.349Z,63
2018-04-11T14:18:28.088Z,64
2018-04-11T14:19:28.815Z,64
2018-04-11T14:20:29.543Z,64
2018-04-11T14:21:30.271Z,64
2018-04-11T14:22:31.000Z,64
2018-04-11T14:23:31.740Z,64
2018-04-11T14:24:32.466Z,64
2018-04-11T14:25:33.208Z,65